KEWB/EWB METAR and TAF weather

Enter ICAO airport designator
Station Type Date Time Source
KEWB METAR 2022/01/23 10:53 UTC NOAA

KEWB 231053Z AUTO 19003KT 10SM OVC075 M06/M08 A2995 RMK AO2 SLP142 T10611078


Station Type Date Time Source
KEWB Decoded METAR 2022/01/23 10:53 UTC NOAA

NEW BEDFORD REGIONAL AIRPORT, MA, United States (KEWB) 41-41N 070-58W 23M
Jan 23, 2022 - 05:53 AM EST / 2022.01.23 1053 UTC
Wind: from the S (190 degrees) at 3 MPH (3 KT):0
Visibility: 10 mile(s):0
Sky conditions: overcast
Temperature: 21.0 F (-6.1 C)
Dew Point: 18.0 F (-7.8 C)
Relative Humidity: 87%
Pressure (altimeter): 29.95 in. Hg (1014 hPa)
ob: KEWB 231053Z AUTO 19003KT 10SM OVC075 M06/M08 A2995 RMK AO2 SLP142 T10611078
cycle: 11

Station Type Date Time Source
KEWB TAF UTC NOAA

Error!

Example: see airport list